createdAt,value
2017-10-08T12:41:03.851Z,65.44
2017-10-08T12:43:31.313Z,65.32
2017-10-08T12:45:58.776Z,64.90
2017-10-08T12:48:26.295Z,65.39
2017-10-08T12:50:53.784Z,65.49
2017-10-08T12:53:21.244Z,65.83
2017-10-08T12:55:48.739Z,65.89
2017-10-08T12:58:16.194Z,65.55
2017-10-08T13:00:43.666Z,65.53
2017-10-08T13:03:11.128Z,65.51
2017-10-08T13:05:38.572Z,65.26
2017-10-08T13:08:06.033Z,65.03
2017-10-08T13:10:33.521Z,64.79
2017-10-08T13:13:00.981Z,65.33
2017-10-08T13:15:28.447Z,66.04
2017-10-08T13:17:55.926Z,65.83
2017-10-08T13:20:23.397Z,66.01
2017-10-08T13:22:50.887Z,65.79
2017-10-08T13:25:18.369Z,66.33
2017-10-08T13:27:45.850Z,66.11
2017-10-08T13:30:13.369Z,65.97
2017-10-08T13:32:40.867Z,65.88
2017-10-08T13:35:08.337Z,65.59
2017-10-08T13:37:35.793Z,64.04
2017-10-08T13:40:03.363Z,62.66
2017-10-08T13:42:30.851Z,62.78
2017-10-08T13:44:58.313Z,63.14
2017-10-08T13:47:25.772Z,64.04
2017-10-08T13:49:53.248Z,64.24
2017-10-08T13:52:20.731Z,64.83
2017-10-08T13:54:48.218Z,64.69
2017-10-08T13:57:15.688Z,65.17
2017-10-08T13:59:43.171Z,64.86
2017-10-08T14:02:10.660Z,64.79
2017-10-08T14:04:38.121Z,65.18
2017-10-08T14:07:05.585Z,65.14
2017-10-08T14:09:33.077Z,65.82
2017-10-08T14:12:00.563Z,65.92
2017-10-08T14:14:28.028Z,66.36
2017-10-08T14:16:55.510Z,66.47
2017-10-08T14:19:22.997Z,66.44
2017-10-08T14:21:50.464Z,66.55
2017-10-08T14:24:17.990Z,66.32
2017-10-08T14:26:45.504Z,65.53
2017-10-08T14:29:12.969Z,65.05
2017-10-08T14:31:40.458Z,64.88
2017-10-08T14:34:07.933Z,64.59
2017-10-08T14:36:35.427Z,64.92
2017-10-08T14:39:02.902Z,65.41
2017-10-08T14:41:30.351Z,65.55
2017-10-08T14:43:57.805Z,65.77
2017-10-08T14:46:25.283Z,65.60
2017-10-08T14:48:52.773Z,66.40
2017-10-08T14:51:20.248Z,66.19
2017-10-08T14:53:47.762Z,66.40
2017-10-08T14:56:15.289Z,66.07
2017-10-08T14:58:43.695Z,66.43
2017-10-08T15:01:11.208Z,66.56
2017-10-08T15:03:38.687Z,66.61
2017-10-08T15:06:06.165Z,66.96
2017-10-08T15:08:33.706Z,67.72
2017-10-08T15:11:01.216Z,68.12
2017-10-08T15:13:28.813Z,68.63
2017-10-08T15:15:56.309Z,68.73
2017-10-08T15:18:23.845Z,68.19
2017-10-08T15:20:51.320Z,67.36
2017-10-08T15:23:18.826Z,67.09
2017-10-08T15:25:46.314Z,66.36
2017-10-08T15:28:13.810Z,65.89
2017-10-08T15:30:41.302Z,67.03
2017-10-08T15:33:08.772Z,67.68
2017-10-08T15:35:36.222Z,67.75
2017-10-08T15:38:03.762Z,67.67
2017-10-08T15:40:31.427Z,67.79
2017-10-08T15:42:58.888Z,68.15
2017-10-08T15:45:26.440Z,68.61
2017-10-08T15:47:53.933Z,68.58
2017-10-08T15:50:21.433Z,68.99
2017-10-08T15:52:48.923Z,69.19
2017-10-08T15:55:16.380Z,69.39
2017-10-08T15:57:43.864Z,69.51
2017-10-08T16:00:11.363Z,69.99
2017-10-08T16:02:38.839Z,69.76
2017-10-08T16:05:06.324Z,70.12
2017-10-08T16:07:33.852Z,70.46
2017-10-08T16:10:01.345Z,70.59
2017-10-08T16:12:28.824Z,70.99
2017-10-08T16:14:56.303Z,71.30
2017-10-08T16:17:23.778Z,71.62
2017-10-08T16:19:51.232Z,71.68
2017-10-08T16:22:18.713Z,71.93
2017-10-08T16:24:46.392Z,71.95
2017-10-08T16:27:13.858Z,72.01
2017-10-08T16:29:41.328Z,71.87
2017-10-08T16:32:08.793Z,71.85
2017-10-08T16:34:36.269Z,72.12
2017-10-08T16:37:03.772Z,72.51
2017-10-08T16:39:31.231Z,72.32
2017-10-08T16:41:58.742Z,72.66
2017-10-08T16:44:26.209Z,72.81
2017-10-08T16:46:53.729Z,72.93
2017-10-08T16:49:21.224Z,73.31
2017-10-08T16:51:48.715Z,73.29
2017-10-08T16:54:16.216Z,73.69
2017-10-08T16:56:43.712Z,73.57
2017-10-08T16:59:11.238Z,73.64
2017-10-08T17:01:38.724Z,73.50
2017-10-08T17:04:06.204Z,73.80
2017-10-08T17:06:33.707Z,73.88
2017-10-08T17:09:01.258Z,73.92
2017-10-08T17:11:28.715Z,74.32
2017-10-08T17:13:56.243Z,74.79
2017-10-08T17:16:23.708Z,74.78
2017-10-08T17:18:51.178Z,74.50
2017-10-08T17:21:18.653Z,74.41
2017-10-08T17:23:46.125Z,74.73
2017-10-08T17:26:13.585Z,74.48
2017-10-08T17:28:41.086Z,74.48
2017-10-08T17:31:08.563Z,74.29
2017-10-08T17:33:36.097Z,74.12
2017-10-08T17:36:03.590Z,74.04
2017-10-08T17:38:31.037Z,73.80
2017-10-08T17:40:58.506Z,73.68
2017-10-08T17:43:25.995Z,73.73
2017-10-08T17:45:53.453Z,73.94
2017-10-08T17:48:20.965Z,73.85
2017-10-08T17:50:48.452Z,73.92
2017-10-08T17:53:15.922Z,73.70
2017-10-08T17:55:43.570Z,73.45
2017-10-08T17:58:11.073Z,73.31
2017-10-08T18:00:38.538Z,73.07
2017-10-08T18:03:06.014Z,73.07
2017-10-08T18:05:33.534Z,73.28
2017-10-08T18:08:01.024Z,73.21
2017-10-08T18:10:28.513Z,73.18
2017-10-08T18:12:56.039Z,73.05
2017-10-08T18:15:23.549Z,73.39
2017-10-08T18:17:51.046Z,72.97
2017-10-08T18:20:18.553Z,72.97
2017-10-08T18:22:46.054Z,73.34
2017-10-08T18:25:13.561Z,72.96
2017-10-08T18:27:41.049Z,73.00
2017-10-08T18:30:08.522Z,72.99
2017-10-08T18:32:35.987Z,72.83
2017-10-08T18:35:03.522Z,72.83
2017-10-08T18:37:31.008Z,73.01
2017-10-08T18:39:58.657Z,73.07
2017-10-08T18:42:26.207Z,73.11
2017-10-08T18:44:53.791Z,73.26
2017-10-08T18:47:21.557Z,73.51
2017-10-08T18:49:49.433Z,73.34
2017-10-08T18:52:17.004Z,73.59
2017-10-08T18:54:44.555Z,73.42
2017-10-08T18:57:12.119Z,73.54
2017-10-08T18:59:39.708Z,73.23
2017-10-08T19:02:07.382Z,73.05
2017-10-08T19:04:35.178Z,73.27
2017-10-08T19:07:02.990Z,72.97
2017-10-08T19:09:30.839Z,72.78
2017-10-08T19:11:58.665Z,72.97
2017-10-08T19:14:26.454Z,73.02
2017-10-08T19:16:54.278Z,72.73
2017-10-08T19:19:22.046Z,72.71
2017-10-08T19:21:49.869Z,72.49
2017-10-08T19:24:17.914Z,72.52
2017-10-08T19:26:45.711Z,72.51
2017-10-08T19:29:13.460Z,72.38
2017-10-08T19:31:41.232Z,72.36
2017-10-08T19:34:09.062Z,72.46
2017-10-08T19:36:36.773Z,72.44
2017-10-08T19:39:04.444Z,72.63
2017-10-08T19:41:32.227Z,72.50
2017-10-08T19:43:59.974Z,72.61
2017-10-08T19:46:27.532Z,72.55
2017-10-08T19:48:55.424Z,72.65
2017-10-08T19:51:23.016Z,72.37
2017-10-08T19:53:50.562Z,72.11
2017-10-08T19:56:18.429Z,71.87
2017-10-08T19:58:46.200Z,71.58
2017-10-08T20:01:13.994Z,71.41
2017-10-08T20:03:41.805Z,71.45
2017-10-08T20:06:09.689Z,71.45
2017-10-08T20:08:37.493Z,71.56
2017-10-08T20:11:05.047Z,71.83
2017-10-08T20:13:32.532Z,71.83
2017-10-08T20:16:00.021Z,71.57
2017-10-08T20:18:27.512Z,71.70
2017-10-08T20:20:54.989Z,73.55
2017-10-08T20:23:22.492Z,74.73
2017-10-08T20:25:49.961Z,74.75
2017-10-08T20:28:17.434Z,75.22
2017-10-08T20:30:44.922Z,75.79
2017-10-08T20:33:12.427Z,77.00
2017-10-08T20:35:39.940Z,77.24
2017-10-08T20:38:07.417Z,78.83
2017-10-08T20:40:34.986Z,80.32
2017-10-08T20:43:02.502Z,81.79
2017-10-08T20:45:29.996Z,82.57
2017-10-08T20:47:57.542Z,83.11
2017-10-08T20:50:25.051Z,82.29
2017-10-08T20:52:52.549Z,81.29
2017-10-08T20:55:20.029Z,81.95
2017-10-08T20:57:47.528Z,81.27
2017-10-08T21:00:15.003Z,81.39
2017-10-08T21:02:42.501Z,81.02
2017-10-08T21:05:10.002Z,81.81
2017-10-08T21:07:37.476Z,82.39
2017-10-08T21:10:04.966Z,81.98
2017-10-08T21:12:32.434Z,82.35
2017-10-08T21:14:59.917Z,81.28
2017-10-08T21:17:27.433Z,82.16
2017-10-08T21:19:54.922Z,82.09
2017-10-08T21:22:22.406Z,82.65
2017-10-08T21:24:50.007Z,83.08
2017-10-08T21:27:17.486Z,83.69
2017-10-08T21:29:44.951Z,83.84
2017-10-08T21:32:12.430Z,83.86
2017-10-08T21:34:39.903Z,84.57
2017-10-08T21:37:07.374Z,83.98
2017-10-08T21:39:34.868Z,84.01
2017-10-08T21:42:02.365Z,84.08
2017-10-08T21:44:29.855Z,84.07
2017-10-08T21:46:57.327Z,84.10
2017-10-08T21:49:24.810Z,85.06
2017-10-08T21:51:52.324Z,85.05
2017-10-08T21:54:19.805Z,84.70
2017-10-08T21:56:47.290Z,85.48
2017-10-08T21:59:14.825Z,85.25
2017-10-08T22:01:42.335Z,85.03
2017-10-08T22:04:09.833Z,85.33
2017-10-08T22:06:37.301Z,85.18
2017-10-08T22:09:04.800Z,84.99
2017-10-08T22:11:32.278Z,84.53
2017-10-08T22:13:59.733Z,85.08
2017-10-08T22:16:27.241Z,83.70
2017-10-08T22:18:54.736Z,83.43
2017-10-08T22:21:22.283Z,83.25
2017-10-08T22:23:49.812Z,83.56
2017-10-08T22:26:17.264Z,82.95
2017-10-08T22:28:44.857Z,83.09
2017-10-08T22:44:07.396Z,84.88
2017-10-08T22:46:34.899Z,84.06
2017-10-08T22:49:02.363Z,83.62
2017-10-08T22:51:29.858Z,83.44
2017-10-08T22:53:57.320Z,81.68
2017-10-08T22:56:24.930Z,79.71
2017-10-08T22:58:52.463Z,77.22
2017-10-08T23:01:19.958Z,78.33
2017-10-08T23:03:47.434Z,78.83
2017-10-08T23:06:14.914Z,78.84
2017-10-08T23:08:42.388Z,78.46
2017-10-08T23:11:09.848Z,79.04
2017-10-08T23:13:37.404Z,80.57
2017-10-08T23:16:04.881Z,79.55
2017-10-08T23:18:32.345Z,80.27
2017-10-08T23:20:59.807Z,80.58
2017-10-08T23:26:00.199Z,77.05
2017-10-08T23:28:27.658Z,76.97
2017-10-08T23:30:55.113Z,77.30
2017-10-08T23:33:22.608Z,74.31
2017-10-08T23:35:50.577Z,73.11
2017-10-08T23:38:18.045Z,73.29
2017-10-08T23:40:45.526Z,73.68
2017-10-08T23:43:12.985Z,74.56
2017-10-08T23:45:40.432Z,74.23
2017-10-08T23:48:07.920Z,74.85
2017-10-08T23:50:35.376Z,73.29
2017-10-08T23:53:02.849Z,74.45
2017-10-08T23:55:30.333Z,74.38
2017-10-08T23:57:57.776Z,74.16
